createdAt,value
2019-02-16T00:04:17.289Z,7.86
2019-02-16T00:09:22.316Z,7.87
2019-02-16T00:14:27.392Z,7.77
2019-02-16T00:19:32.532Z,7.74
2019-02-16T00:24:37.551Z,7.74
2019-02-16T00:29:43.760Z,7.68
2019-02-16T00:34:48.846Z,7.68
2019-02-16T00:39:54.116Z,7.66
2019-02-16T00:44:59.471Z,7.62
2019-02-16T00:50:04.590Z,7.62
2019-02-16T00:55:09.738Z,7.61
2019-02-16T01:00:19.193Z,7.55
2019-02-16T01:05:24.266Z,7.51
2019-02-16T01:10:29.448Z,7.48
2019-02-16T01:15:34.527Z,7.43
2019-02-16T01:20:39.655Z,7.38
2019-02-16T01:25:44.751Z,7.40
2019-02-16T01:30:50.222Z,7.38
2019-02-16T01:35:55.883Z,7.35
2019-02-16T01:41:01.123Z,7.33
2019-02-16T01:46:06.248Z,7.27
2019-02-16T01:51:11.329Z,7.25
2019-02-16T01:56:16.341Z,7.18
2019-02-16T02:01:21.883Z,7.19
2019-02-16T02:06:26.967Z,7.09
2019-02-16T02:11:32.092Z,7.07
2019-02-16T02:16:37.268Z,7.01
2019-02-16T02:21:42.325Z,7.00
2019-02-16T02:26:47.295Z,6.96
2019-02-16T02:31:52.384Z,6.91
2019-02-16T02:36:57.581Z,6.97
2019-02-16T02:42:02.690Z,6.93
2019-02-16T02:47:07.846Z,6.81
2019-02-16T02:52:12.906Z,6.83
2019-02-16T02:57:18.014Z,6.79
2019-02-16T03:02:23.056Z,6.73
2019-02-16T03:07:28.165Z,6.72
2019-02-16T03:12:33.677Z,6.74
2019-02-16T03:17:38.833Z,6.72
2019-02-16T03:23:30.251Z,6.72
2019-02-16T03:28:52.011Z,6.78
2019-02-16T03:34:05.285Z,6.80
2019-02-16T03:39:19.743Z,6.77
2019-02-16T03:44:25.047Z,6.76
2019-02-16T03:49:30.141Z,6.70
2019-02-16T03:54:35.096Z,6.67
2019-02-16T03:59:40.073Z,6.63
2019-02-16T04:04:46.228Z,6.59
2019-02-16T04:09:51.606Z,6.51
2019-02-16T04:14:57.175Z,6.46
2019-02-16T04:20:05.958Z,6.44
2019-02-16T04:25:11.622Z,6.39
2019-02-16T04:30:19.404Z,6.29
2019-02-16T04:35:28.152Z,6.31
2019-02-16T04:40:33.710Z,6.26
2019-02-16T04:45:39.252Z,6.20
2019-02-16T04:50:47.442Z,6.19
2019-02-16T04:55:55.939Z,6.16
2019-02-16T05:01:01.113Z,6.13
2019-02-16T05:06:07.125Z,6.10
2019-02-16T05:11:12.189Z,6.09
2019-02-16T05:16:20.263Z,5.95
2019-02-16T05:21:28.856Z,5.99
2019-02-16T05:26:37.468Z,5.95
2019-02-16T05:31:52.469Z,5.90
2019-02-16T05:37:01.208Z,5.84
2019-02-16T05:42:11.745Z,5.79
2019-02-16T05:47:19.063Z,5.80
2019-02-16T05:52:25.137Z,5.75
2019-02-16T05:57:34.705Z,5.72
2019-02-16T06:02:40.275Z,5.71
2019-02-16T06:07:45.557Z,5.64
2019-02-16T06:12:53.812Z,5.63
2019-02-16T06:17:59.826Z,5.59
2019-02-16T06:23:05.034Z,5.56
2019-02-16T06:28:10.689Z,5.54
2019-02-16T06:33:16.095Z,5.54
2019-02-16T06:38:21.302Z,5.58
2019-02-16T06:43:26.932Z,5.56
2019-02-16T06:48:33.955Z,5.57
2019-02-16T06:53:42.276Z,5.61
2019-02-16T06:58:47.861Z,5.64
2019-02-16T07:03:53.452Z,5.67
2019-02-16T07:09:07.984Z,5.74
2019-02-16T07:14:13.184Z,5.82
2019-02-16T07:19:24.127Z,5.78
2019-02-16T07:24:29.525Z,5.83
2019-02-16T07:29:34.637Z,5.89
2019-02-16T07:34:39.725Z,5.97
2019-02-16T07:39:44.826Z,6.04
2019-02-16T07:45:07.956Z,6.14
2019-02-16T07:50:27.532Z,6.20
2019-02-16T07:55:54.464Z,6.35
2019-02-16T08:01:17.289Z,6.29
2019-02-16T08:06:34.230Z,6.45
2019-02-16T08:11:48.588Z,6.65
2019-02-16T08:17:00.042Z,7.03
2019-02-16T08:22:22.763Z,7.43
2019-02-16T08:27:39.057Z,7.78
2019-02-16T08:33:05.995Z,8.18
2019-02-16T08:38:36.295Z,8.46
2019-02-16T08:43:51.051Z,8.44
2019-02-16T08:49:19.433Z,8.42
2019-02-16T08:54:30.775Z,8.45
2019-02-16T09:00:04.263Z,8.61
2019-02-16T09:05:16.202Z,8.83
2019-02-16T09:10:49.101Z,9.10
2019-02-16T09:16:13.176Z,9.29
2019-02-16T09:21:28.641Z,9.48
2019-02-16T09:26:51.711Z,9.62
2019-02-16T09:32:18.994Z,9.77
2019-02-16T09:37:41.035Z,9.90
2019-02-16T09:43:04.293Z,10.05
2019-02-16T09:48:18.115Z,10.22
2019-02-16T09:53:41.620Z,10.44
2019-02-16T09:59:05.993Z,10.69
2019-02-16T10:04:29.087Z,11.85
2019-02-16T10:09:52.392Z,17.08
2019-02-16T10:15:15.136Z,19.25
2019-02-16T10:20:29.073Z,21.98
2019-02-16T10:25:54.995Z,23.90
2019-02-16T10:31:21.680Z,24.40
2019-02-16T10:36:44.280Z,23.84
2019-02-16T10:42:06.067Z,23.99
2019-02-16T10:47:30.167Z,23.05
2019-02-16T10:53:03.419Z,22.64
2019-02-16T10:58:29.385Z,22.04
2019-02-16T11:03:52.389Z,23.52
2019-02-16T11:09:07.948Z,22.50
2019-02-16T11:14:21.753Z,22.26
2019-02-16T11:19:42.546Z,21.45
2019-02-16T11:25:05.511Z,22.83
2019-02-16T11:30:29.601Z,22.71
2019-02-16T11:36:09.010Z,21.27
2019-02-16T11:41:22.594Z,20.98
2019-02-16T11:46:45.530Z,21.44
2019-02-16T11:51:59.718Z,21.94
2019-02-16T11:57:42.229Z,22.17
2019-02-16T12:03:19.198Z,22.51
2019-02-16T12:08:44.148Z,23.17
2019-02-16T12:14:17.908Z,23.61
2019-02-16T12:19:30.963Z,23.66
2019-02-16T12:25:05.357Z,23.29
2019-02-16T12:30:28.994Z,23.30
2019-02-16T12:35:51.231Z,23.67
2019-02-16T12:41:21.832Z,25.34
2019-02-16T12:46:36.449Z,25.95
2019-02-16T12:51:57.858Z,28.04
2019-02-16T12:57:07.866Z,28.67
2019-02-16T13:02:30.624Z,28.54
2019-02-16T13:07:49.989Z,28.18
2019-02-16T13:13:08.558Z,28.89
2019-02-16T13:18:28.423Z,28.52
2019-02-16T13:23:46.598Z,28.68
2019-02-16T13:29:10.754Z,27.08
2019-02-16T13:34:33.921Z,27.70
2019-02-16T13:39:53.043Z,27.08
2019-02-16T13:45:07.607Z,26.63
2019-02-16T13:50:30.696Z,26.71
2019-02-16T13:56:00.678Z,26.61
2019-02-16T14:01:20.904Z,26.21
2019-02-16T14:06:44.665Z,26.85
2019-02-16T14:12:03.771Z,26.16
2019-02-16T14:17:27.437Z,25.76
2019-02-16T14:22:32.483Z,25.76
2019-02-16T14:27:37.547Z,25.40
2019-02-16T14:32:42.697Z,24.55
2019-02-16T14:38:02.425Z,22.98
2019-02-16T14:43:07.442Z,21.50
2019-02-16T14:48:12.515Z,20.15
2019-02-16T14:53:17.886Z,19.52
2019-02-16T14:58:22.887Z,19.17
2019-02-16T15:03:28.009Z,18.74
2019-02-16T15:08:33.163Z,18.40
2019-02-16T15:13:40.354Z,18.05
2019-02-16T15:18:45.652Z,17.94
2019-02-16T15:23:51.457Z,17.95
2019-02-16T15:28:56.870Z,17.88
2019-02-16T15:34:02.100Z,17.65
2019-02-16T15:39:13.191Z,17.52
2019-02-16T15:44:18.401Z,17.22
2019-02-16T15:49:24.156Z,17.07
2019-02-16T15:54:29.456Z,16.85
2019-02-16T15:59:35.415Z,16.72
2019-02-16T16:04:40.584Z,16.64
2019-02-16T16:10:20.530Z,16.47
2019-02-16T16:15:47.550Z,16.26
2019-02-16T16:21:11.891Z,16.08
2019-02-16T16:26:36.090Z,15.90
2019-02-16T16:32:01.219Z,15.76
2019-02-16T16:37:23.363Z,15.55
2019-02-16T16:42:44.347Z,15.35
2019-02-16T16:48:08.961Z,15.10
2019-02-16T16:53:38.676Z,14.96
2019-02-16T16:59:05.689Z,14.89
2019-02-16T17:04:25.027Z,14.78
2019-02-16T17:10:01.281Z,14.63
2019-02-16T17:15:22.962Z,14.49
2019-02-16T17:20:58.021Z,14.30
2019-02-16T17:26:20.830Z,14.10
2019-02-16T17:31:45.142Z,13.97
2019-02-16T17:37:02.380Z,13.83
2019-02-16T17:42:19.704Z,13.70
2019-02-16T17:47:43.975Z,13.61
2019-02-16T17:53:17.563Z,13.51
2019-02-16T17:58:34.347Z,13.37
2019-02-16T18:03:48.327Z,13.26
2019-02-16T18:09:11.898Z,13.14
2019-02-16T18:14:42.371Z,13.06
2019-02-16T18:20:06.585Z,12.94
2019-02-16T18:25:35.995Z,12.83
2019-02-16T18:31:00.147Z,12.73
2019-02-16T18:36:23.057Z,12.56
2019-02-16T18:41:56.133Z,12.46
2019-02-16T18:47:19.795Z,12.38
2019-02-16T18:52:43.315Z,12.29
2019-02-16T18:58:08.334Z,12.27
2019-02-16T19:03:27.664Z,12.41
2019-02-16T19:08:57.859Z,12.38
2019-02-16T19:14:24.932Z,12.37
2019-02-16T19:19:51.981Z,12.40
2019-02-16T19:25:16.116Z,12.49
2019-02-16T19:30:40.511Z,12.44
2019-02-16T19:35:53.076Z,12.39
2019-02-16T19:41:17.152Z,12.35
2019-02-16T19:46:41.154Z,12.20
2019-02-16T19:52:23.564Z,12.14
2019-02-16T19:57:40.722Z,12.00
2019-02-16T20:02:53.644Z,11.96
2019-02-16T20:08:31.264Z,11.90
2019-02-16T20:13:52.151Z,11.84
2019-02-16T20:19:34.663Z,11.82
2019-02-16T20:24:54.213Z,11.77
2019-02-16T20:30:27.865Z,11.56
2019-02-16T20:35:45.423Z,11.53
2019-02-16T20:41:08.964Z,11.54
2019-02-16T20:46:33.211Z,11.45
2019-02-16T20:51:51.606Z,11.31
2019-02-16T20:57:03.975Z,11.27
2019-02-16T21:02:28.458Z,11.15
2019-02-16T21:07:48.256Z,11.10
2019-02-16T21:13:13.396Z,10.94
2019-02-16T21:18:37.835Z,10.86
2019-02-16T21:24:05.146Z,10.71
2019-02-16T21:29:22.552Z,10.68
2019-02-16T21:34:46.801Z,10.61
2019-02-16T21:40:20.000Z,10.60
2019-02-16T21:45:47.658Z,10.57
2019-02-16T21:51:13.015Z,10.47
2019-02-16T21:56:37.903Z,10.41
2019-02-16T22:01:52.740Z,10.35
2019-02-16T22:07:22.702Z,10.29
2019-02-16T22:12:59.086Z,10.24
2019-02-16T22:18:04.348Z,10.13
2019-02-16T22:23:10.144Z,9.92
2019-02-16T22:28:20.347Z,9.81
2019-02-16T22:33:22.108Z,9.73
2019-02-16T22:38:27.260Z,9.80
2019-02-16T22:43:32.775Z,9.81
2019-02-16T22:48:38.140Z,9.72
2019-02-16T22:53:43.648Z,9.61
2019-02-16T22:58:48.748Z,9.64
2019-02-16T23:03:53.944Z,9.65
2019-02-16T23:08:59.575Z,9.49
2019-02-16T23:14:04.847Z,9.40
2019-02-16T23:19:10.020Z,9.32
2019-02-16T23:24:15.140Z,9.28
2019-02-16T23:29:22.444Z,9.12
2019-02-16T23:34:27.720Z,9.15
2019-02-16T23:39:33.047Z,9.24
2019-02-16T23:44:38.102Z,9.10
2019-02-16T23:49:43.690Z,9.06
2019-02-16T23:54:49.256Z,9.03
2019-02-16T23:59:54.337Z,8.79
